sensor_id;sensor_type;location;lat;lon;timestamp;P1;durP1;ratioP1;P2;durP2;ratioP2
52124;SDS011;38119;52.710;6.398;2023-08-31T00:00:34;6.72;;;2.70;;
52124;SDS011;38119;52.710;6.398;2023-08-31T00:03:02;8.43;;;2.88;;
52124;SDS011;38119;52.710;6.398;2023-08-31T00:05:28;6.38;;;3.17;;
52124;SDS011;38119;52.710;6.398;2023-08-31T00:07:55;8.05;;;3.00;;
52124;SDS011;38119;52.710;6.398;2023-08-31T00:10:21;7.45;;;2.90;;
52124;SDS011;38119;52.710;6.398;2023-08-31T00:12:47;8.48;;;3.38;;
52124;SDS011;38119;52.710;6.398;2023-08-31T00:15:14;7.95;;;3.60;;
52124;SDS011;38119;52.710;6.398;2023-08-31T00:17:40;8.93;;;3.55;;
52124;SDS011;38119;52.710;6.398;2023-08-31T00:20:06;8.63;;;3.30;;
52124;SDS011;38119;52.710;6.398;2023-08-31T00:22:33;11.43;;;3.92;;
52124;SDS011;38119;52.710;6.398;2023-08-31T00:24:58;10.13;;;3.20;;
52124;SDS011;38119;52.710;6.398;2023-08-31T00:27:24;10.45;;;3.90;;
52124;SDS011;38119;52.710;6.398;2023-08-31T00:29:50;9.27;;;3.17;;
52124;SDS011;38119;52.710;6.398;2023-08-31T00:32:16;10.15;;;3.42;;
52124;SDS011;38119;52.710;6.398;2023-08-31T00:34:43;7.93;;;3.88;;
52124;SDS011;38119;52.710;6.398;2023-08-31T00:37:09;7.63;;;3.25;;
52124;SDS011;38119;52.710;6.398;2023-08-31T00:39:35;7.70;;;3.30;;
52124;SDS011;38119;52.710;6.398;2023-08-31T00:42:00;8.15;;;3.45;;
52124;SDS011;38119;52.710;6.398;2023-08-31T00:44:26;7.57;;;3.58;;
52124;SDS011;38119;52.710;6.398;2023-08-31T00:46:51;9.10;;;3.55;;
52124;SDS011;38119;52.710;6.398;2023-08-31T00:49:17;9.10;;;3.30;;
52124;SDS011;38119;52.710;6.398;2023-08-31T00:51:43;6.40;;;3.17;;
52124;SDS011;38119;52.710;6.398;2023-08-31T00:54:16;7.93;;;2.90;;
52124;SDS011;38119;52.710;6.398;2023-08-31T00:56:43;7.43;;;2.90;;
52124;SDS011;38119;52.710;6.398;2023-08-31T00:59:09;9.02;;;2.67;;
52124;SDS011;38119;52.710;6.398;2023-08-31T01:01:57;5.45;;;2.22;;
52124;SDS011;38119;52.710;6.398;2023-08-31T01:07:39;6.18;;;2.70;;
52124;SDS011;38119;52.710;6.398;2023-08-31T01:10:25;7.82;;;3.20;;
52124;SDS011;38119;52.710;6.398;2023-08-31T01:13:03;6.88;;;3.20;;
52124;SDS011;38119;52.710;6.398;2023-08-31T01:15:36;11.35;;;3.50;;
52124;SDS011;38119;52.710;6.398;2023-08-31T01:18:03;7.72;;;3.60;;
52124;SDS011;38119;52.710;6.398;2023-08-31T01:20:49;7.55;;;4.13;;
52124;SDS011;38119;52.710;6.398;2023-08-31T01:23:28;9.43;;;4.32;;
52124;SDS011;38119;52.710;6.398;2023-08-31T01:25:59;10.90;;;4.68;;
52124;SDS011;38119;52.710;6.398;2023-08-31T01:28:25;7.70;;;4.78;;
52124;SDS011;38119;52.710;6.398;2023-08-31T01:30:51;6.80;;;4.25;;
52124;SDS011;38119;52.710;6.398;2023-08-31T01:33:17;8.27;;;3.95;;
52124;SDS011;38119;52.710;6.398;2023-08-31T01:35:43;8.48;;;4.45;;
52124;SDS011;38119;52.710;6.398;2023-08-31T01:38:14;8.38;;;4.45;;
52124;SDS011;38119;52.710;6.398;2023-08-31T01:40:44;8.90;;;4.47;;
52124;SDS011;38119;52.710;6.398;2023-08-31T01:43:17;9.48;;;4.85;;
52124;SDS011;38119;52.710;6.398;2023-08-31T01:45:44;7.85;;;4.25;;
52124;SDS011;38119;52.710;6.398;2023-08-31T01:48:13;9.35;;;4.25;;
52124;SDS011;38119;52.710;6.398;2023-08-31T01:50:39;6.65;;;3.85;;
52124;SDS011;38119;52.710;6.398;2023-08-31T01:53:05;6.90;;;4.18;;
52124;SDS011;38119;52.710;6.398;2023-08-31T01:55:31;6.93;;;3.58;;
52124;SDS011;38119;52.710;6.398;2023-08-31T01:57:57;6.75;;;3.42;;
52124;SDS011;38119;52.710;6.398;2023-08-31T02:00:24;6.63;;;3.65;;
52124;SDS011;38119;52.710;6.398;2023-08-31T02:02:50;9.70;;;3.83;;
52124;SDS011;38119;52.710;6.398;2023-08-31T02:05:16;5.78;;;3.50;;
52124;SDS011;38119;52.710;6.398;2023-08-31T02:07:41;6.75;;;3.72;;
52124;SDS011;38119;52.710;6.398;2023-08-31T02:10:07;8.00;;;3.67;;
52124;SDS011;38119;52.710;6.398;2023-08-31T02:12:33;7.68;;;3.88;;
52124;SDS011;38119;52.710;6.398;2023-08-31T02:15:01;7.97;;;3.60;;
52124;SDS011;38119;52.710;6.398;2023-08-31T02:17:27;5.97;;;3.03;;
52124;SDS011;38119;52.710;6.398;2023-08-31T02:19:53;5.25;;;3.35;;
52124;SDS011;38119;52.710;6.398;2023-08-31T02:22:19;6.30;;;3.45;;
52124;SDS011;38119;52.710;6.398;2023-08-31T02:24:45;7.95;;;3.78;;
52124;SDS011;38119;52.710;6.398;2023-08-31T02:27:10;4.55;;;3.03;;
52124;SDS011;38119;52.710;6.398;2023-08-31T02:29:36;5.72;;;3.00;;
52124;SDS011;38119;52.710;6.398;2023-08-31T02:32:05;5.88;;;3.00;;
52124;SDS011;38119;52.710;6.398;2023-08-31T02:34:31;7.00;;;3.50;;
52124;SDS011;38119;52.710;6.398;2023-08-31T02:36:56;6.13;;;3.28;;
52124;SDS011;38119;52.710;6.398;2023-08-31T02:39:22;6.72;;;3.10;;
52124;SDS011;38119;52.710;6.398;2023-08-31T02:41:48;8.05;;;2.83;;
52124;SDS011;38119;52.710;6.398;2023-08-31T02:44:14;5.20;;;3.08;;
52124;SDS011;38119;52.710;6.398;2023-08-31T02:46:39;5.38;;;3.33;;
52124;SDS011;38119;52.710;6.398;2023-08-31T02:49:05;6.95;;;3.53;;
52124;SDS011;38119;52.710;6.398;2023-08-31T02:51:30;6.30;;;3.90;;
52124;SDS011;38119;52.710;6.398;2023-08-31T02:53:56;5.28;;;3.28;;
52124;SDS011;38119;52.710;6.398;2023-08-31T02:56:21;7.95;;;3.47;;
52124;SDS011;38119;52.710;6.398;2023-08-31T02:58:47;5.13;;;3.15;;
52124;SDS011;38119;52.710;6.398;2023-08-31T03:01:13;6.30;;;3.20;;
52124;SDS011;38119;52.710;6.398;2023-08-31T03:03:39;4.85;;;3.20;;
52124;SDS011;38119;52.710;6.398;2023-08-31T03:06:06;5.28;;;3.33;;
52124;SDS011;38119;52.710;6.398;2023-08-31T03:08:35;6.15;;;3.40;;
52124;SDS011;38119;52.710;6.398;2023-08-31T03:11:05;4.57;;;3.25;;
52124;SDS011;38119;52.710;6.398;2023-08-31T03:13:31;5.43;;;3.55;;
52124;SDS011;38119;52.710;6.398;2023-08-31T03:15:58;5.60;;;3.85;;
52124;SDS011;38119;52.710;6.398;2023-08-31T03:18:24;7.18;;;3.80;;
52124;SDS011;38119;52.710;6.398;2023-08-31T03:20:50;8.07;;;4.13;;
52124;SDS011;38119;52.710;6.398;2023-08-31T03:23:15;5.85;;;3.75;;
52124;SDS011;38119;52.710;6.398;2023-08-31T03:25:41;7.00;;;4.05;;
52124;SDS011;38119;52.710;6.398;2023-08-31T03:28:07;7.15;;;4.38;;
52124;SDS011;38119;52.710;6.398;2023-08-31T03:30:33;6.70;;;4.28;;
52124;SDS011;38119;52.710;6.398;2023-08-31T03:32:59;6.85;;;4.28;;
52124;SDS011;38119;52.710;6.398;2023-08-31T03:35:24;6.22;;;4.38;;
52124;SDS011;38119;52.710;6.398;2023-08-31T03:37:52;6.22;;;4.50;;
52124;SDS011;38119;52.710;6.398;2023-08-31T03:40:18;6.55;;;4.68;;
52124;SDS011;38119;52.710;6.398;2023-08-31T03:42:44;6.95;;;4.82;;
52124;SDS011;38119;52.710;6.398;2023-08-31T03:45:09;5.70;;;3.92;;
52124;SDS011;38119;52.710;6.398;2023-08-31T03:47:36;7.80;;;4.40;;
52124;SDS011;38119;52.710;6.398;2023-08-31T03:50:01;6.22;;;3.90;;
52124;SDS011;38119;52.710;6.398;2023-08-31T03:52:27;7.65;;;3.97;;
52124;SDS011;38119;52.710;6.398;2023-08-31T03:54:53;8.20;;;3.90;;
52124;SDS011;38119;52.710;6.398;2023-08-31T03:57:19;4.95;;;3.80;;
52124;SDS011;38119;52.710;6.398;2023-08-31T03:59:45;7.28;;;3.30;;
52124;SDS011;38119;52.710;6.398;2023-08-31T04:02:11;6.97;;;3.40;;
52124;SDS011;38119;52.710;6.398;2023-08-31T04:04:36;6.18;;;3.78;;
52124;SDS011;38119;52.710;6.398;2023-08-31T04:07:02;7.78;;;3.60;;
52124;SDS011;38119;52.710;6.398;2023-08-31T04:09:27;5.88;;;3.40;;
52124;SDS011;38119;52.710;6.398;2023-08-31T04:11:53;4.90;;;3.15;;
52124;SDS011;38119;52.710;6.398;2023-08-31T04:14:18;5.18;;;3.58;;
52124;SDS011;38119;52.710;6.398;2023-08-31T04:16:44;5.40;;;3.33;;
52124;SDS011;38119;52.710;6.398;2023-08-31T04:19:12;7.35;;;3.78;;
52124;SDS011;38119;52.710;6.398;2023-08-31T04:21:37;7.18;;;3.38;;
52124;SDS011;38119;52.710;6.398;2023-08-31T04:24:03;8.65;;;3.40;;
52124;SDS011;38119;52.710;6.398;2023-08-31T04:26:30;7.07;;;3.40;;
52124;SDS011;38119;52.710;6.398;2023-08-31T04:28:56;6.03;;;3.50;;
52124;SDS011;38119;52.710;6.398;2023-08-31T04:31:22;7.22;;;3.30;;
52124;SDS011;38119;52.710;6.398;2023-08-31T04:33:47;6.00;;;3.30;;
52124;SDS011;38119;52.710;6.398;2023-08-31T04:36:13;5.40;;;3.38;;
52124;SDS011;38119;52.710;6.398;2023-08-31T04:38:39;5.65;;;3.42;;
52124;SDS011;38119;52.710;6.398;2023-08-31T04:41:04;5.65;;;3.40;;
52124;SDS011;38119;52.710;6.398;2023-08-31T04:43:30;6.60;;;3.65;;
52124;SDS011;38119;52.710;6.398;2023-08-31T04:45:56;5.38;;;3.47;;
52124;SDS011;38119;52.710;6.398;2023-08-31T04:48:22;7.28;;;3.80;;
52124;SDS011;38119;52.710;6.398;2023-08-31T04:50:48;7.53;;;4.28;;
52124;SDS011;38119;52.710;6.398;2023-08-31T04:53:13;7.45;;;4.00;;
52124;SDS011;38119;52.710;6.398;2023-08-31T04:55:39;7.78;;;4.22;;
52124;SDS011;38119;52.710;6.398;2023-08-31T04:58:05;9.27;;;4.65;;
52124;SDS011;38119;52.710;6.398;2023-08-31T05:00:30;9.20;;;4.57;;
52124;SDS011;38119;52.710;6.398;2023-08-31T05:02:56;7.57;;;5.20;;
52124;SDS011;38119;52.710;6.398;2023-08-31T05:05:22;8.10;;;4.90;;
52124;SDS011;38119;52.710;6.398;2023-08-31T05:07:48;7.38;;;4.70;;
52124;SDS011;38119;52.710;6.398;2023-08-31T05:10:13;9.20;;;5.07;;
52124;SDS011;38119;52.710;6.398;2023-08-31T05:12:39;6.75;;;5.47;;
52124;SDS011;38119;52.710;6.398;2023-08-31T05:15:05;9.45;;;5.53;;
52124;SDS011;38119;52.710;6.398;2023-08-31T05:17:31;10.95;;;5.03;;
52124;SDS011;38119;52.710;6.398;2023-08-31T05:19:57;7.60;;;5.18;;
52124;SDS011;38119;52.710;6.398;2023-08-31T05:22:23;9.80;;;5.10;;
52124;SDS011;38119;52.710;6.398;2023-08-31T05:24:48;9.82;;;4.38;;
52124;SDS011;38119;52.710;6.398;2023-08-31T05:27:14;7.93;;;4.85;;
52124;SDS011;38119;52.710;6.398;2023-08-31T05:29:39;11.07;;;5.20;;
52124;SDS011;38119;52.710;6.398;2023-08-31T05:32:05;8.00;;;5.20;;
52124;SDS011;38119;52.710;6.398;2023-08-31T05:34:31;9.25;;;5.45;;
52124;SDS011;38119;52.710;6.398;2023-08-31T05:36:59;10.38;;;5.15;;
52124;SDS011;38119;52.710;6.398;2023-08-31T05:39:25;10.43;;;4.90;;
52124;SDS011;38119;52.710;6.398;2023-08-31T05:41:50;10.57;;;5.03;;
52124;SDS011;38119;52.710;6.398;2023-08-31T05:44:16;9.25;;;4.68;;
52124;SDS011;38119;52.710;6.398;2023-08-31T05:46:42;7.80;;;4.50;;
52124;SDS011;38119;52.710;6.398;2023-08-31T05:49:07;7.05;;;4.65;;
52124;SDS011;38119;52.710;6.398;2023-08-31T05:51:33;7.25;;;4.43;;
52124;SDS011;38119;52.710;6.398;2023-08-31T05:53:59;6.70;;;4.32;;
52124;SDS011;38119;52.710;6.398;2023-08-31T05:56:25;8.48;;;5.13;;
52124;SDS011;38119;52.710;6.398;2023-08-31T05:58:51;8.25;;;5.47;;
52124;SDS011;38119;52.710;6.398;2023-08-31T06:01:20;10.23;;;5.20;;
52124;SDS011;38119;52.710;6.398;2023-08-31T06:03:47;8.98;;;4.95;;
52124;SDS011;38119;52.710;6.398;2023-08-31T06:06:13;10.85;;;4.95;;
52124;SDS011;38119;52.710;6.398;2023-08-31T06:08:39;7.07;;;5.05;;
52124;SDS011;38119;52.710;6.398;2023-08-31T06:11:05;10.10;;;5.20;;
52124;SDS011;38119;52.710;6.398;2023-08-31T06:13:31;9.38;;;5.30;;
52124;SDS011;38119;52.710;6.398;2023-08-31T06:15:56;10.52;;;4.75;;
52124;SDS011;38119;52.710;6.398;2023-08-31T06:18:23;8.55;;;4.90;;
52124;SDS011;38119;52.710;6.398;2023-08-31T06:20:49;7.22;;;4.70;;
52124;SDS011;38119;52.710;6.398;2023-08-31T06:23:14;10.07;;;4.97;;
52124;SDS011;38119;52.710;6.398;2023-08-31T06:25:40;11.73;;;4.82;;
52124;SDS011;38119;52.710;6.398;2023-08-31T06:28:06;10.65;;;4.50;;
52124;SDS011;38119;52.710;6.398;2023-08-31T06:30:34;9.80;;;4.30;;
52124;SDS011;38119;52.710;6.398;2023-08-31T06:33:00;6.85;;;4.13;;
52124;SDS011;38119;52.710;6.398;2023-08-31T06:35:25;9.95;;;4.00;;
52124;SDS011;38119;52.710;6.398;2023-08-31T06:37:51;11.00;;;3.97;;
52124;SDS011;38119;52.710;6.398;2023-08-31T06:40:17;8.23;;;4.05;;
52124;SDS011;38119;52.710;6.398;2023-08-31T06:42:42;9.40;;;4.47;;
52124;SDS011;38119;52.710;6.398;2023-08-31T06:45:08;7.13;;;3.97;;
52124;SDS011;38119;52.710;6.398;2023-08-31T06:47:37;11.65;;;3.80;;
52124;SDS011;38119;52.710;6.398;2023-08-31T06:50:03;10.30;;;3.50;;
52124;SDS011;38119;52.710;6.398;2023-08-31T06:52:29;8.98;;;3.55;;
52124;SDS011;38119;52.710;6.398;2023-08-31T06:54:55;5.60;;;3.40;;
52124;SDS011;38119;52.710;6.398;2023-08-31T06:57:24;13.98;;;3.28;;
52124;SDS011;38119;52.710;6.398;2023-08-31T06:59:51;7.88;;;3.10;;
52124;SDS011;38119;52.710;6.398;2023-08-31T07:02:17;10.55;;;3.30;;
52124;SDS011;38119;52.710;6.398;2023-08-31T07:04:44;9.07;;;2.88;;
52124;SDS011;38119;52.710;6.398;2023-08-31T07:07:11;6.82;;;3.22;;
52124;SDS011;38119;52.710;6.398;2023-08-31T07:09:39;7.47;;;3.20;;
52124;SDS011;38119;52.710;6.398;2023-08-31T07:12:09;9.27;;;3.33;;
52124;SDS011;38119;52.710;6.398;2023-08-31T07:14:35;5.78;;;2.90;;
52124;SDS011;38119;52.710;6.398;2023-08-31T07:17:00;6.35;;;2.75;;
52124;SDS011;38119;52.710;6.398;2023-08-31T07:19:26;7.18;;;2.80;;
52124;SDS011;38119;52.710;6.398;2023-08-31T07:21:52;10.10;;;3.13;;
52124;SDS011;38119;52.710;6.398;2023-08-31T07:24:20;7.93;;;3.03;;
52124;SDS011;38119;52.710;6.398;2023-08-31T07:26:46;7.80;;;3.08;;
52124;SDS011;38119;52.710;6.398;2023-08-31T07:29:12;6.38;;;2.70;;
52124;SDS011;38119;52.710;6.398;2023-08-31T07:31:38;8.65;;;2.63;;
52124;SDS011;38119;52.710;6.398;2023-08-31T07:34:03;4.00;;;2.38;;
52124;SDS011;38119;52.710;6.398;2023-08-31T07:36:29;6.20;;;1.80;;
52124;SDS011;38119;52.710;6.398;2023-08-31T07:38:55;7.57;;;2.20;;
52124;SDS011;38119;52.710;6.398;2023-08-31T07:41:20;5.55;;;2.15;;
52124;SDS011;38119;52.710;6.398;2023-08-31T07:43:46;5.78;;;1.80;;
52124;SDS011;38119;52.710;6.398;2023-08-31T07:46:12;3.78;;;1.70;;
52124;SDS011;38119;52.710;6.398;2023-08-31T07:48:37;3.90;;;1.73;;
52124;SDS011;38119;52.710;6.398;2023-08-31T07:51:04;4.30;;;1.73;;
52124;SDS011;38119;52.710;6.398;2023-08-31T07:53:29;4.80;;;1.40;;
52124;SDS011;38119;52.710;6.398;2023-08-31T07:55:55;3.30;;;1.40;;
52124;SDS011;38119;52.710;6.398;2023-08-31T07:58:24;5.18;;;1.50;;
52124;SDS011;38119;52.710;6.398;2023-08-31T08:00:54;3.35;;;1.40;;
52124;SDS011;38119;52.710;6.398;2023-08-31T08:03:21;4.65;;;1.30;;
52124;SDS011;38119;52.710;6.398;2023-08-31T08:05:47;5.50;;;1.30;;
52124;SDS011;38119;52.710;6.398;2023-08-31T08:08:13;2.50;;;1.30;;
52124;SDS011;38119;52.710;6.398;2023-08-31T08:10:38;5.88;;;1.52;;
52124;SDS011;38119;52.710;6.398;2023-08-31T08:13:04;5.72;;;1.30;;
52124;SDS011;38119;52.710;6.398;2023-08-31T08:15:30;3.67;;;1.10;;
52124;SDS011;38119;52.710;6.398;2023-08-31T08:17:56;2.38;;;1.20;;
52124;SDS011;38119;52.710;6.398;2023-08-31T08:20:25;4.22;;;1.23;;
52124;SDS011;38119;52.710;6.398;2023-08-31T08:22:52;4.82;;;1.20;;
52124;SDS011;38119;52.710;6.398;2023-08-31T08:25:20;2.55;;;0.85;;
52124;SDS011;38119;52.710;6.398;2023-08-31T08:27:46;3.80;;;1.10;;
52124;SDS011;38119;52.710;6.398;2023-08-31T08:30:13;1.60;;;1.02;;
52124;SDS011;38119;52.710;6.398;2023-08-31T08:32:40;2.90;;;1.20;;
52124;SDS011;38119;52.710;6.398;2023-08-31T08:35:06;3.28;;;1.13;;
52124;SDS011;38119;52.710;6.398;2023-08-31T08:37:32;3.15;;;1.10;;
52124;SDS011;38119;52.710;6.398;2023-08-31T08:39:58;3.17;;;1.20;;
52124;SDS011;38119;52.710;6.398;2023-08-31T08:42:24;2.17;;;1.10;;
52124;SDS011;38119;52.710;6.398;2023-08-31T08:44:50;10.30;;;1.00;;
52124;SDS011;38119;52.710;6.398;2023-08-31T08:47:16;4.75;;;1.23;;
52124;SDS011;38119;52.710;6.398;2023-08-31T08:49:43;3.38;;;1.40;;
52124;SDS011;38119;52.710;6.398;2023-08-31T08:52:09;4.53;;;1.08;;
52124;SDS011;38119;52.710;6.398;2023-08-31T08:54:37;4.80;;;0.90;;
52124;SDS011;38119;52.710;6.398;2023-08-31T08:57:04;4.00;;;1.42;;
52124;SDS011;38119;52.710;6.398;2023-08-31T08:59:32;4.88;;;1.08;;
52124;SDS011;38119;52.710;6.398;2023-08-31T09:01:58;2.60;;;1.00;;
52124;SDS011;38119;52.710;6.398;2023-08-31T09:04:24;2.05;;;0.90;;
52124;SDS011;38119;52.710;6.398;2023-08-31T09:06:52;4.55;;;1.00;;
52124;SDS011;38119;52.710;6.398;2023-08-31T09:09:18;3.75;;;1.00;;
52124;SDS011;38119;52.710;6.398;2023-08-31T09:11:45;2.15;;;1.08;;
52124;SDS011;38119;52.710;6.398;2023-08-31T09:14:17;2.25;;;1.10;;
52124;SDS011;38119;52.710;6.398;2023-08-31T09:16:48;3.50;;;1.00;;
52124;SDS011;38119;52.710;6.398;2023-08-31T09:19:18;4.22;;;1.30;;
52124;SDS011;38119;52.710;6.398;2023-08-31T09:21:46;4.00;;;1.20;;
52124;SDS011;38119;52.710;6.398;2023-08-31T09:24:20;3.60;;;1.00;;
52124;SDS011;38119;52.710;6.398;2023-08-31T09:26:49;2.10;;;1.08;;
52124;SDS011;38119;52.710;6.398;2023-08-31T09:29:20;4.55;;;1.58;;
52124;SDS011;38119;52.710;6.398;2023-08-31T09:31:46;6.70;;;1.60;;
52124;SDS011;38119;52.710;6.398;2023-08-31T09:34:16;3.13;;;0.93;;
52124;SDS011;38119;52.710;6.398;2023-08-31T09:36:43;3.45;;;1.15;;
52124;SDS011;38119;52.710;6.398;2023-08-31T09:39:09;4.18;;;1.25;;
52124;SDS011;38119;52.710;6.398;2023-08-31T09:41:52;3.10;;;1.15;;
52124;SDS011;38119;52.710;6.398;2023-08-31T09:44:19;1.65;;;0.90;;
52124;SDS011;38119;52.710;6.398;2023-08-31T09:46:45;3.78;;;1.23;;
52124;SDS011;38119;52.710;6.398;2023-08-31T09:49:13;3.42;;;1.50;;
52124;SDS011;38119;52.710;6.398;2023-08-31T09:51:40;4.38;;;1.30;;
52124;SDS011;38119;52.710;6.398;2023-08-31T09:54:09;5.13;;;1.50;;
52124;SDS011;38119;52.710;6.398;2023-08-31T09:56:42;3.80;;;1.25;;
52124;SDS011;38119;52.710;6.398;2023-08-31T09:59:13;5.53;;;1.30;;
52124;SDS011;38119;52.710;6.398;2023-08-31T10:01:40;3.63;;;1.13;;
52124;SDS011;38119;52.710;6.398;2023-08-31T10:04:07;6.03;;;1.70;;
52124;SDS011;38119;52.710;6.398;2023-08-31T10:06:37;2.42;;;1.20;;
52124;SDS011;38119;52.710;6.398;2023-08-31T10:09:04;2.88;;;1.10;;
52124;SDS011;38119;52.710;6.398;2023-08-31T10:11:30;4.43;;;1.58;;
52124;SDS011;38119;52.710;6.398;2023-08-31T10:13:57;5.28;;;1.80;;
52124;SDS011;38119;52.710;6.398;2023-08-31T10:16:25;9.32;;;1.90;;
52124;SDS011;38119;52.710;6.398;2023-08-31T10:18:52;6.85;;;1.42;;
52124;SDS011;38119;52.710;6.398;2023-08-31T10:21:19;4.32;;;1.65;;
52124;SDS011;38119;52.710;6.398;2023-08-31T10:23:45;6.03;;;1.55;;
52124;SDS011;38119;52.710;6.398;2023-08-31T10:26:11;4.18;;;1.40;;
52124;SDS011;38119;52.710;6.398;2023-08-31T10:28:47;5.35;;;1.65;;
52124;SDS011;38119;52.710;6.398;2023-08-31T10:31:16;5.30;;;1.35;;
52124;SDS011;38119;52.710;6.398;2023-08-31T10:33:43;5.32;;;1.40;;
52124;SDS011;38119;52.710;6.398;2023-08-31T10:36:16;6.15;;;1.55;;
52124;SDS011;38119;52.710;6.398;2023-08-31T10:41:21;6.55;;;1.73;;
52124;SDS011;38119;52.710;6.398;2023-08-31T10:43:52;3.42;;;1.25;;
52124;SDS011;38119;52.710;6.398;2023-08-31T10:46:24;3.80;;;1.17;;
52124;SDS011;38119;52.710;6.398;2023-08-31T10:48:55;3.75;;;1.10;;
52124;SDS011;38119;52.710;6.398;2023-08-31T10:51:30;4.82;;;1.17;;
52124;SDS011;38119;52.710;6.398;2023-08-31T10:59:26;3.33;;;1.10;;
52124;SDS011;38119;52.710;6.398;2023-08-31T11:02:06;4.03;;;1.05;;
52124;SDS011;38119;52.710;6.398;2023-08-31T11:04:38;4.20;;;1.10;;
52124;SDS011;38119;52.710;6.398;2023-08-31T11:07:18;3.55;;;1.25;;
52124;SDS011;38119;52.710;6.398;2023-08-31T11:09:45;2.92;;;1.17;;
52124;SDS011;38119;52.710;6.398;2023-08-31T11:12:11;5.22;;;1.40;;
52124;SDS011;38119;52.710;6.398;2023-08-31T11:14:38;3.38;;;1.00;;
52124;SDS011;38119;52.710;6.398;2023-08-31T11:17:04;5.10;;;1.23;;
52124;SDS011;38119;52.710;6.398;2023-08-31T11:19:30;2.60;;;1.23;;
52124;SDS011;38119;52.710;6.398;2023-08-31T11:21:58;5.05;;;1.20;;
52124;SDS011;38119;52.710;6.398;2023-08-31T11:24:28;5.78;;;1.67;;
52124;SDS011;38119;52.710;6.398;2023-08-31T11:26:55;3.72;;;1.10;;
52124;SDS011;38119;52.710;6.398;2023-08-31T11:29:20;4.07;;;1.08;;
52124;SDS011;38119;52.710;6.398;2023-08-31T11:31:46;3.35;;;1.00;;
52124;SDS011;38119;52.710;6.398;2023-08-31T11:34:12;2.45;;;1.17;;
52124;SDS011;38119;52.710;6.398;2023-08-31T11:36:39;5.45;;;0.80;;
52124;SDS011;38119;52.710;6.398;2023-08-31T11:39:06;2.67;;;0.57;;
52124;SDS011;38119;52.710;6.398;2023-08-31T11:41:33;3.33;;;0.70;;
52124;SDS011;38119;52.710;6.398;2023-08-31T11:44:01;2.67;;;0.80;;
52124;SDS011;38119;52.710;6.398;2023-08-31T11:46:28;2.55;;;0.82;;
52124;SDS011;38119;52.710;6.398;2023-08-31T11:48:55;2.05;;;0.60;;
52124;SDS011;38119;52.710;6.398;2023-08-31T11:51:21;4.35;;;1.35;;
52124;SDS011;38119;52.710;6.398;2023-08-31T11:53:47;7.45;;;2.08;;
52124;SDS011;38119;52.710;6.398;2023-08-31T11:56:13;9.55;;;2.42;;
52124;SDS011;38119;52.710;6.398;2023-08-31T11:58:41;8.07;;;1.33;;
52124;SDS011;38119;52.710;6.398;2023-08-31T12:01:08;2.05;;;0.80;;
52124;SDS011;38119;52.710;6.398;2023-08-31T12:03:43;1.15;;;0.60;;
52124;SDS011;38119;52.710;6.398;2023-08-31T12:06:09;2.00;;;0.80;;
52124;SDS011;38119;52.710;6.398;2023-08-31T12:08:36;2.63;;;0.80;;
52124;SDS011;38119;52.710;6.398;2023-08-31T12:11:03;4.38;;;0.88;;
52124;SDS011;38119;52.710;6.398;2023-08-31T12:13:31;2.92;;;1.13;;
52124;SDS011;38119;52.710;6.398;2023-08-31T12:15:57;3.85;;;1.20;;
52124;SDS011;38119;52.710;6.398;2023-08-31T12:18:23;3.70;;;1.30;;
52124;SDS011;38119;52.710;6.398;2023-08-31T12:20:52;4.38;;;1.20;;
52124;SDS011;38119;52.710;6.398;2023-08-31T12:23:18;6.05;;;1.10;;
52124;SDS011;38119;52.710;6.398;2023-08-31T12:25:53;4.32;;;0.90;;
52124;SDS011;38119;52.710;6.398;2023-08-31T12:28:20;3.08;;;0.98;;
52124;SDS011;38119;52.710;6.398;2023-08-31T12:30:51;3.97;;;0.80;;
52124;SDS011;38119;52.710;6.398;2023-08-31T12:33:18;3.10;;;0.80;;
52124;SDS011;38119;52.710;6.398;2023-08-31T12:35:44;1.95;;;0.75;;
52124;SDS011;38119;52.710;6.398;2023-08-31T12:38:10;1.52;;;0.80;;
52124;SDS011;38119;52.710;6.398;2023-08-31T12:40:37;1.85;;;0.75;;
52124;SDS011;38119;52.710;6.398;2023-08-31T12:43:05;2.35;;;0.80;;
52124;SDS011;38119;52.710;6.398;2023-08-31T12:45:31;3.13;;;1.00;;
52124;SDS011;38119;52.710;6.398;2023-08-31T12:47:58;4.20;;;1.05;;
52124;SDS011;38119;52.710;6.398;2023-08-31T12:50:24;2.55;;;0.90;;
52124;SDS011;38119;52.710;6.398;2023-08-31T12:52:49;3.25;;;0.95;;
52124;SDS011;38119;52.710;6.398;2023-08-31T12:55:15;2.00;;;1.05;;
52124;SDS011;38119;52.710;6.398;2023-08-31T12:57:41;3.45;;;1.23;;
52124;SDS011;38119;52.710;6.398;2023-08-31T13:00:08;5.43;;;1.35;;
52124;SDS011;38119;52.710;6.398;2023-08-31T13:02:37;3.92;;;1.35;;
52124;SDS011;38119;52.710;6.398;2023-08-31T13:05:07;2.63;;;1.30;;
52124;SDS011;38119;52.710;6.398;2023-08-31T13:07:36;5.82;;;1.40;;
52124;SDS011;38119;52.710;6.398;2023-08-31T13:10:03;4.50;;;1.33;;
52124;SDS011;38119;52.710;6.398;2023-08-31T13:12:30;5.15;;;1.33;;
52124;SDS011;38119;52.710;6.398;2023-08-31T13:14:57;6.60;;;1.48;;
52124;SDS011;38119;52.710;6.398;2023-08-31T13:17:23;4.82;;;1.10;;
52124;SDS011;38119;52.710;6.398;2023-08-31T13:19:52;3.58;;;1.27;;
52124;SDS011;38119;52.710;6.398;2023-08-31T13:22:18;3.05;;;1.15;;
52124;SDS011;38119;52.710;6.398;2023-08-31T13:24:44;3.58;;;1.23;;
52124;SDS011;38119;52.710;6.398;2023-08-31T13:27:10;2.15;;;1.00;;
52124;SDS011;38119;52.710;6.398;2023-08-31T13:29:35;8.50;;;1.60;;
52124;SDS011;38119;52.710;6.398;2023-08-31T13:32:01;4.80;;;1.35;;
52124;SDS011;38119;52.710;6.398;2023-08-31T13:34:27;4.68;;;1.48;;
52124;SDS011;38119;52.710;6.398;2023-08-31T13:36:53;5.05;;;1.60;;
52124;SDS011;38119;52.710;6.398;2023-08-31T13:39:18;4.80;;;1.40;;
52124;SDS011;38119;52.710;6.398;2023-08-31T13:41:44;6.53;;;1.40;;
52124;SDS011;38119;52.710;6.398;2023-08-31T13:44:11;4.60;;;1.40;;
52124;SDS011;38119;52.710;6.398;2023-08-31T13:46:36;7.03;;;1.30;;
52124;SDS011;38119;52.710;6.398;2023-08-31T13:49:02;3.85;;;1.40;;
52124;SDS011;38119;52.710;6.398;2023-08-31T13:51:28;13.70;;;1.77;;
52124;SDS011;38119;52.710;6.398;2023-08-31T13:53:53;5.55;;;1.83;;
52124;SDS011;38119;52.710;6.398;2023-08-31T13:56:19;6.57;;;1.52;;
52124;SDS011;38119;52.710;6.398;2023-08-31T13:58:45;5.38;;;1.35;;
52124;SDS011;38119;52.710;6.398;2023-08-31T14:01:10;6.05;;;1.80;;
52124;SDS011;38119;52.710;6.398;2023-08-31T14:03:38;4.30;;;1.73;;
52124;SDS011;38119;52.710;6.398;2023-08-31T14:06:03;4.75;;;1.40;;
52124;SDS011;38119;52.710;6.398;2023-08-31T14:08:29;5.65;;;1.45;;
52124;SDS011;38119;52.710;6.398;2023-08-31T14:10:55;6.10;;;1.58;;
52124;SDS011;38119;52.710;6.398;2023-08-31T14:13:21;5.75;;;1.65;;
52124;SDS011;38119;52.710;6.398;2023-08-31T14:15:47;4.10;;;1.30;;
52124;SDS011;38119;52.710;6.398;2023-08-31T14:18:15;6.05;;;1.77;;
52124;SDS011;38119;52.710;6.398;2023-08-31T14:20:41;4.00;;;1.55;;
52124;SDS011;38119;52.710;6.398;2023-08-31T14:23:08;4.95;;;1.60;;
52124;SDS011;38119;52.710;6.398;2023-08-31T14:25:36;5.35;;;1.25;;
52124;SDS011;38119;52.710;6.398;2023-08-31T14:28:03;7.50;;;1.63;;
52124;SDS011;38119;52.710;6.398;2023-08-31T14:30:30;4.05;;;1.67;;
52124;SDS011;38119;52.710;6.398;2023-08-31T14:32:56;7.25;;;1.77;;
52124;SDS011;38119;52.710;6.398;2023-08-31T14:35:21;1.85;;;0.85;;
52124;SDS011;38119;52.710;6.398;2023-08-31T14:37:47;4.22;;;1.40;;
52124;SDS011;38119;52.710;6.398;2023-08-31T14:40:13;5.05;;;1.50;;
52124;SDS011;38119;52.710;6.398;2023-08-31T14:42:42;5.75;;;1.30;;
52124;SDS011;38119;52.710;6.398;2023-08-31T14:45:08;4.20;;;1.45;;
52124;SDS011;38119;52.710;6.398;2023-08-31T14:47:35;4.07;;;1.58;;
52124;SDS011;38119;52.710;6.398;2023-08-31T14:50:02;5.72;;;1.20;;
52124;SDS011;38119;52.710;6.398;2023-08-31T14:52:30;3.63;;;1.25;;
52124;SDS011;38119;52.710;6.398;2023-08-31T14:54:56;4.60;;;1.30;;